createdAt,value
2018-02-10T00:01:46.704Z,12.20
2018-02-10T00:04:15.654Z,11.43
2018-02-10T00:06:43.822Z,12.70
2018-02-10T00:09:11.978Z,12.10
2018-02-10T00:11:40.134Z,11.97
2018-02-10T00:14:08.998Z,11.33
2018-02-10T00:16:37.149Z,12.00
2018-02-10T00:19:05.309Z,11.10
2018-02-10T00:21:33.501Z,12.57
2018-02-10T00:24:01.780Z,12.60
2018-02-10T00:26:29.951Z,11.63
2018-02-10T00:28:58.263Z,11.13
2018-02-10T00:31:26.468Z,11.83
2018-02-10T00:33:54.736Z,11.30
2018-02-10T00:36:22.978Z,10.77
2018-02-10T00:38:51.882Z,11.57
2018-02-10T00:41:20.090Z,10.63
2018-02-10T00:43:48.969Z,10.33
2018-02-10T00:46:17.133Z,10.87
2018-02-10T00:48:45.311Z,10.23
2018-02-10T00:51:13.477Z,10.33
2018-02-10T00:53:41.672Z,10.73
2018-02-10T00:56:09.837Z,10.83
2018-02-10T00:58:38.007Z,11.23
2018-02-10T01:01:06.149Z,10.67
2018-02-10T01:03:35.055Z,10.03
2018-02-10T01:06:03.272Z,10.47
2018-02-10T01:08:31.418Z,10.47
2018-02-10T01:10:59.559Z,10.53
2018-02-10T01:13:28.481Z,10.93
2018-02-10T01:15:56.648Z,11.50
2018-02-10T01:18:24.849Z,11.03
2018-02-10T01:20:53.005Z,11.53
2018-02-10T01:23:21.164Z,11.10
2018-02-10T01:25:49.345Z,11.47
2018-02-10T01:28:18.449Z,11.40
2018-02-10T01:30:46.611Z,11.60
2018-02-10T01:33:14.745Z,12.10
2018-02-10T01:35:42.962Z,11.00
2018-02-10T01:38:11.112Z,12.83
2018-02-10T01:40:40.112Z,11.40
2018-02-10T01:43:08.292Z,13.23
2018-02-10T01:45:36.449Z,12.10
2018-02-10T01:48:05.374Z,11.97
2018-02-10T01:50:33.572Z,11.93
2018-02-10T01:53:01.724Z,12.23
2018-02-10T01:55:29.971Z,11.97
2018-02-10T01:57:58.199Z,11.47
2018-02-10T02:00:26.593Z,12.07
2018-02-10T02:02:54.741Z,11.90
2018-02-10T02:05:22.949Z,11.83
2018-02-10T02:07:51.114Z,11.17
2018-02-10T02:10:19.279Z,12.43
2018-02-10T02:12:47.441Z,11.57
2018-02-10T02:15:15.610Z,10.50
2018-02-10T02:17:43.827Z,10.87
2018-02-10T02:20:11.978Z,10.67
2018-02-10T02:22:40.759Z,10.57
2018-02-10T02:25:08.901Z,10.47
2018-02-10T02:27:37.060Z,9.70
2018-02-10T02:30:05.494Z,9.10
2018-02-10T02:32:33.694Z,9.27
2018-02-10T02:35:02.622Z,8.80
2018-02-10T02:37:30.808Z,8.80
2018-02-10T02:39:59.665Z,8.70
2018-02-10T02:42:28.582Z,8.83
2018-02-10T02:44:56.741Z,7.60
2018-02-10T02:47:24.901Z,7.17
2018-02-10T02:49:53.819Z,7.93
2018-02-10T02:52:21.976Z,7.77
2018-02-10T02:54:50.139Z,6.90
2018-02-10T02:57:18.283Z,6.67
2018-02-10T02:59:46.449Z,6.80
2018-02-10T03:02:14.574Z,6.77
2018-02-10T03:04:42.807Z,6.80
2018-02-10T03:07:11.019Z,6.43
2018-02-10T03:09:39.648Z,6.37
2018-02-10T03:12:07.807Z,6.10
2018-02-10T03:14:35.998Z,5.73
2018-02-10T03:17:04.162Z,6.20
2018-02-10T03:19:32.321Z,5.23
2018-02-10T03:22:00.518Z,6.10
2018-02-10T03:24:28.836Z,5.63
2018-02-10T03:26:57.006Z,5.67
2018-02-10T03:29:25.963Z,4.93
2018-02-10T03:31:54.095Z,5.10
2018-02-10T03:34:22.308Z,4.90
2018-02-10T03:36:50.448Z,4.57
2018-02-10T03:39:18.597Z,5.07
2018-02-10T03:41:46.756Z,4.67
2018-02-10T03:44:15.690Z,4.70
2018-02-10T03:46:43.833Z,4.20
2018-02-10T03:49:11.980Z,4.37
2018-02-10T03:51:40.133Z,4.17
2018-02-10T03:54:08.310Z,4.30
2018-02-10T03:56:36.475Z,3.80
2018-02-10T03:59:04.642Z,3.93
2018-02-10T04:01:32.865Z,3.73
2018-02-10T04:04:01.112Z,3.80
2018-02-10T04:06:29.357Z,4.27
2018-02-10T04:08:57.471Z,3.77
2018-02-10T04:11:25.695Z,3.50
2018-02-10T04:13:53.835Z,3.47
2018-02-10T04:16:22.757Z,3.90
2018-02-10T04:18:50.931Z,3.90
2018-02-10T04:21:19.174Z,3.80
2018-02-10T04:23:48.102Z,4.00
2018-02-10T04:26:16.256Z,3.97
2018-02-10T04:28:44.400Z,3.60
2018-02-10T04:31:13.329Z,3.57
2018-02-10T04:33:41.785Z,3.47
2018-02-10T04:36:10.700Z,3.70
2018-02-10T04:38:38.855Z,3.53
2018-02-10T04:41:07.788Z,3.33
2018-02-10T04:43:36.042Z,3.60
2018-02-10T04:46:04.223Z,3.30
2018-02-10T04:48:33.309Z,3.67
2018-02-10T04:51:01.513Z,3.70
2018-02-10T04:53:29.647Z,3.33
2018-02-10T04:55:57.880Z,3.60
2018-02-10T04:58:26.873Z,3.83
2018-02-10T05:00:55.020Z,3.73
2018-02-10T05:03:23.192Z,3.33
2018-02-10T05:05:52.055Z,3.93
2018-02-10T05:08:20.213Z,4.37
2018-02-10T05:10:49.157Z,3.97
2018-02-10T05:13:17.300Z,3.97
2018-02-10T05:15:45.454Z,4.17
2018-02-10T05:18:14.393Z,4.13
2018-02-10T05:20:42.529Z,4.30
2018-02-10T05:23:10.666Z,4.37
2018-02-10T05:25:38.817Z,4.10
2018-02-10T05:28:07.102Z,4.20
2018-02-10T05:30:35.305Z,3.90
2018-02-10T05:33:04.242Z,4.13
2018-02-10T05:35:32.389Z,4.30
2018-02-10T05:38:00.570Z,4.10
2018-02-10T05:40:28.723Z,3.60
2018-02-10T05:42:56.929Z,4.13
2018-02-10T05:45:25.923Z,4.53
2018-02-10T05:47:54.092Z,3.60
2018-02-10T05:50:22.220Z,3.60
2018-02-10T05:52:50.437Z,3.93
2018-02-10T05:55:18.673Z,4.00
2018-02-10T05:57:47.015Z,4.30
2018-02-10T06:00:15.227Z,4.10
2018-02-10T06:02:43.417Z,3.73
2018-02-10T06:05:11.589Z,3.70
2018-02-10T06:07:40.564Z,3.40
2018-02-10T06:10:08.714Z,3.50
2018-02-10T06:12:37.638Z,3.30
2018-02-10T06:15:06.573Z,2.97
2018-02-10T06:17:34.828Z,3.10
2018-02-10T06:20:03.141Z,2.50
2018-02-10T06:22:31.327Z,2.60
2018-02-10T06:24:59.563Z,2.50
2018-02-10T06:27:27.800Z,2.57
2018-02-10T06:29:56.026Z,2.40
2018-02-10T06:32:24.284Z,2.20
2018-02-10T06:34:52.453Z,2.30
2018-02-10T06:37:20.584Z,2.03
2018-02-10T06:39:48.745Z,1.80
2018-02-10T06:42:16.886Z,2.07
2018-02-10T06:44:45.030Z,1.93
2018-02-10T06:47:15.268Z,2.63
2018-02-10T06:49:43.450Z,1.80
2018-02-10T06:52:11.611Z,1.73
2018-02-10T06:54:40.689Z,2.63
2018-02-10T06:57:09.617Z,1.90
2018-02-10T06:59:37.754Z,3.00
2018-02-10T07:02:06.671Z,2.63
2018-02-10T07:04:34.823Z,2.57
2018-02-10T07:07:03.769Z,2.47
2018-02-10T07:09:31.928Z,3.30
2018-02-10T07:12:00.163Z,2.27
2018-02-10T07:14:29.062Z,3.83
2018-02-10T07:16:57.262Z,3.33
2018-02-10T07:19:25.392Z,2.57
2018-02-10T07:21:54.331Z,3.63
2018-02-10T07:24:22.493Z,3.93
2018-02-10T07:26:50.661Z,3.93
2018-02-10T07:29:18.888Z,3.90
2018-02-10T07:31:47.145Z,3.77
2018-02-10T07:34:15.375Z,4.37
2018-02-10T07:36:44.303Z,4.23
2018-02-10T07:39:12.483Z,4.97
2018-02-10T07:41:40.618Z,5.43
2018-02-10T07:44:08.826Z,4.83
2018-02-10T07:46:36.992Z,4.33
2018-02-10T07:49:05.144Z,5.53
2018-02-10T07:51:33.281Z,5.67
2018-02-10T07:54:01.440Z,4.17
2018-02-10T07:56:29.653Z,6.63
2018-02-10T07:58:58.577Z,5.93
2018-02-10T08:01:27.049Z,4.20
2018-02-10T08:03:55.218Z,5.33
2018-02-10T08:06:23.391Z,5.00
2018-02-10T08:08:51.577Z,5.73
2018-02-10T08:11:19.722Z,5.00
2018-02-10T08:13:47.854Z,5.53
2018-02-10T08:16:17.703Z,5.40
2018-02-10T08:18:45.909Z,6.27
2018-02-10T08:21:14.173Z,7.20
2018-02-10T08:23:42.336Z,5.33
2018-02-10T08:26:10.592Z,4.97
2018-02-10T08:28:38.819Z,6.50
2018-02-10T08:31:07.213Z,5.05
2018-02-10T08:33:35.424Z,7.30
2018-02-10T08:36:04.314Z,7.50
2018-02-10T08:38:33.232Z,6.13
2018-02-10T08:41:01.392Z,8.30
2018-02-10T08:43:29.534Z,6.70
2018-02-10T08:45:57.706Z,6.20
2018-02-10T08:48:25.861Z,9.13
2018-02-10T08:50:54.033Z,7.97
2018-02-10T08:53:22.978Z,8.10
2018-02-10T08:55:51.157Z,6.87
2018-02-10T08:58:19.899Z,6.17
2018-02-10T09:00:48.114Z,9.67
2018-02-10T09:03:16.293Z,8.80
2018-02-10T09:05:44.447Z,9.07
2018-02-10T09:08:13.444Z,9.83
2018-02-10T09:10:42.359Z,8.63
2018-02-10T09:13:10.514Z,8.20
2018-02-10T09:15:38.703Z,8.23
2018-02-10T09:18:06.831Z,6.37
2018-02-10T09:20:35.004Z,9.63
2018-02-10T09:23:03.164Z,8.43
2018-02-10T09:25:31.331Z,7.60
2018-02-10T09:27:59.465Z,6.77
2018-02-10T09:30:27.619Z,7.03
2018-02-10T09:32:56.532Z,6.33
2018-02-10T09:35:24.665Z,10.00
2018-02-10T09:37:52.875Z,7.77
2018-02-10T09:40:21.012Z,9.27
2018-02-10T09:42:49.171Z,6.70
2018-02-10T09:45:17.360Z,8.90
2018-02-10T09:47:45.457Z,9.50
2018-02-10T09:50:13.618Z,9.03
2018-02-10T09:52:42.532Z,7.50
2018-02-10T09:55:10.662Z,6.73
2018-02-10T09:57:38.793Z,6.77
2018-02-10T10:00:06.999Z,8.27
2018-02-10T10:02:35.132Z,7.07
2018-02-10T10:05:03.397Z,9.77
2018-02-10T10:07:31.633Z,5.40
2018-02-10T10:09:59.785Z,6.90
2018-02-10T10:12:28.404Z,7.43
2018-02-10T10:14:57.343Z,6.33
2018-02-10T10:17:25.620Z,8.23
2018-02-10T10:19:53.776Z,7.63
2018-02-10T10:22:21.955Z,6.63
2018-02-10T10:24:50.078Z,8.53
2018-02-10T10:27:18.253Z,6.20
2018-02-10T10:29:46.405Z,7.93
2018-02-10T10:32:14.529Z,9.90
2018-02-10T10:34:42.688Z,6.50
2018-02-10T10:37:10.856Z,6.77
2018-02-10T10:39:39.008Z,7.00
2018-02-10T10:42:07.154Z,8.23
2018-02-10T10:44:35.338Z,6.63
2018-02-10T10:47:03.511Z,6.87
2018-02-10T10:49:31.664Z,9.70
2018-02-10T10:51:59.845Z,7.27
2018-02-10T10:54:27.998Z,9.63
2018-02-10T10:56:56.159Z,8.60
2018-02-10T10:59:24.342Z,20.88
2018-02-10T11:01:52.477Z,6.30
2018-02-10T11:04:22.710Z,9.20
2018-02-10T11:06:50.895Z,6.67
2018-02-10T11:09:19.856Z,6.83
2018-02-10T11:11:48.006Z,7.20
2018-02-10T11:14:16.273Z,6.80
2018-02-10T11:16:44.509Z,7.27
2018-02-10T11:19:13.412Z,6.63
2018-02-10T11:21:41.589Z,9.33
2018-02-10T11:24:09.754Z,7.73
2018-02-10T11:26:37.937Z,10.83
2018-02-10T11:29:06.110Z,12.47
2018-02-10T11:31:35.028Z,9.03
2018-02-10T11:34:03.340Z,8.63
2018-02-10T11:36:32.278Z,9.13
2018-02-10T11:39:00.427Z,9.07
2018-02-10T11:41:28.591Z,9.27
2018-02-10T11:43:56.742Z,6.53
2018-02-10T11:46:25.691Z,9.10
2018-02-10T11:48:53.911Z,8.47
2018-02-10T11:51:22.073Z,8.00
2018-02-10T11:53:50.227Z,7.17
2018-02-10T11:56:18.950Z,7.13
2018-02-10T11:58:47.110Z,6.60
2018-02-10T12:01:15.255Z,4.87
2018-02-10T12:03:43.429Z,7.67
2018-02-10T12:06:11.594Z,8.47
2018-02-10T12:08:39.774Z,5.73
2018-02-10T12:11:08.869Z,8.07
2018-02-10T12:13:37.086Z,7.13
2018-02-10T12:16:05.623Z,6.30
2018-02-10T12:18:33.787Z,6.97
2018-02-10T12:21:01.979Z,7.43
2018-02-10T12:23:30.211Z,7.27
2018-02-10T12:25:58.504Z,8.07
2018-02-10T12:28:26.698Z,4.23
2018-02-10T12:30:54.884Z,6.10
2018-02-10T12:33:23.651Z,6.30
2018-02-10T12:35:51.811Z,7.33
2018-02-10T12:38:21.223Z,7.37
2018-02-10T12:40:49.401Z,6.90
2018-02-10T12:43:17.639Z,6.17
2018-02-10T12:45:45.795Z,10.43
2018-02-10T12:48:30.053Z,4.97
2018-02-10T12:50:58.227Z,8.03
2018-02-10T12:53:26.453Z,6.83
2018-02-10T12:55:54.678Z,7.37
2018-02-10T12:58:22.879Z,6.70
2018-02-10T13:00:51.804Z,7.47
2018-02-10T13:03:19.977Z,5.73
2018-02-10T13:05:48.149Z,4.93
2018-02-10T13:08:16.315Z,5.47
2018-02-10T13:10:44.498Z,7.60
2018-02-10T13:13:12.649Z,6.57
2018-02-10T13:15:41.622Z,14.70
2018-02-10T13:18:10.559Z,7.10
2018-02-10T13:20:38.703Z,5.77
2018-02-10T13:23:11.534Z,6.30
2018-02-10T13:25:39.766Z,5.43
2018-02-10T13:28:07.963Z,7.73
2018-02-10T13:30:36.426Z,6.03
2018-02-10T13:33:04.693Z,5.37
2018-02-10T13:35:33.992Z,4.23
2018-02-10T13:38:02.991Z,5.73
2018-02-10T13:40:31.228Z,5.03
2018-02-10T13:42:59.426Z,6.47
2018-02-10T13:45:27.594Z,5.23
2018-02-10T13:47:56.528Z,4.07
2018-02-10T13:50:24.666Z,6.93
2018-02-10T13:52:53.618Z,7.27
2018-02-10T13:55:21.771Z,5.57
2018-02-10T13:57:49.930Z,6.00
2018-02-10T14:00:18.200Z,4.37
2018-02-10T14:02:46.357Z,6.80
2018-02-10T14:05:15.320Z,7.20
2018-02-10T14:07:44.271Z,5.87
2018-02-10T14:10:12.433Z,9.70
2018-02-10T14:12:40.613Z,6.43
2018-02-10T14:15:08.784Z,6.47
